Time,TemperatureF,DewpointF,PressureIn,WindDirection,WindDirectionDegrees,WindSpeedMPH,WindSpeedGustMPH,Humidity,HourlyPrecipIn,Conditions,Clouds,dailyrainin,SoftwareType,DateUTC
2013-06-26 00:07:00,58.8,54.7,0.00,North,0,0.0,0.0,86,0.00,,,-99.99,pyweather 0.1,2013-06-26 07:07:00,
2013-06-26 00:15:00,58.8,54.7,0.00,North,0,0.0,0.0,86,0.00,,,-99.99,pyweather 0.1,2013-06-26 07:15:00,
2013-06-26 00:23:00,58.8,55.0,0.00,North,0,0.0,0.0,87,0.00,,,-99.99,pyweather 0.1,2013-06-26 07:23:00,
2013-06-26 00:31:00,59.0,55.1,0.00,North,0,0.0,0.0,87,0.00,,,-99.99,pyweather 0.1,2013-06-26 07:31:00,
2013-06-26 00:39:00,59.0,55.1,0.00,North,0,0.0,0.0,87,0.00,,,-99.99,pyweather 0.1,2013-06-26 07:39:00,
2013-06-26 00:47:00,58.8,55.0,0.00,North,0,0.0,0.0,87,0.00,,,-99.99,pyweather 0.1,2013-06-26 07:47:00,
2013-06-26 00:55:00,58.6,54.8,0.00,North,0,0.0,0.0,87,0.00,,,-99.99,pyweather 0.1,2013-06-26 07:55:00,
2013-06-26 01:03:00,58.5,54.6,0.00,North,0,0.0,0.0,87,0.00,,,-99.99,pyweather 0.1,2013-06-26 08:03:00,
2013-06-26 01:11:00,58.3,54.4,0.00,North,0,0.0,0.0,87,0.00,,,-99.99,pyweather 0.1,2013-06-26 08:11:00,
2013-06-26 01:19:00,58.1,54.3,0.00,North,0,0.0,0.0,87,0.00,,,-99.99,pyweather 0.1,2013-06-26 08:19:00,
2013-06-26 01:27:00,58.1,54.3,0.00,North,0,0.0,0.0,87,0.00,,,-99.99,pyweather 0.1,2013-06-26 08:27:00,
2013-06-26 01:35:00,58.1,54.3,0.00,North,0,0.0,0.0,87,0.00,,,-99.99,pyweather 0.1,2013-06-26 08:35:00,
2013-06-26 01:43:00,57.9,54.1,0.00,North,0,0.0,0.0,87,0.00,,,-99.99,pyweather 0.1,2013-06-26 08:43:00,
2013-06-26 01:51:00,57.9,54.1,0.00,North,0,0.0,0.0,87,0.00,,,-99.99,pyweather 0.1,2013-06-26 08:51:00,
2013-06-26 01:59:00,57.9,54.1,0.00,North,0,0.0,0.0,87,0.00,,,-99.99,pyweather 0.1,2013-06-26 08:59:00,
2013-06-26 02:07:00,57.9,54.4,0.00,North,0,0.0,0.0,88,0.00,,,-99.99,pyweather 0.1,2013-06-26 09:07:00,
2013-06-26 02:15:00,57.9,54.4,0.00,North,0,0.0,0.0,88,0.00,,,-99.99,pyweather 0.1,2013-06-26 09:15:00,
2013-06-26 02:23:00,57.7,54.2,0.00,North,0,0.0,0.0,88,0.00,,,-99.99,pyweather 0.1,2013-06-26 09:23:00,
2013-06-26 02:31:00,57.7,54.5,0.00,North,0,0.0,0.0,89,0.00,,,-99.99,pyweather 0.1,2013-06-26 09:31:00,
2013-06-26 02:40:00,57.9,54.7,0.00,North,0,0.0,0.0,89,0.00,,,-99.99,pyweather 0.1,2013-06-26 09:40:00,
2013-06-26 02:48:00,58.1,55.2,0.00,North,0,0.0,0.0,90,0.00,,,-99.99,pyweather 0.1,2013-06-26 09:48:00,
2013-06-26 02:56:00,58.3,55.4,0.00,North,0,0.0,0.0,90,0.00,,,-99.99,pyweather 0.1,2013-06-26 09:56:00,
2013-06-26 03:04:00,58.3,55.4,0.00,North,0,0.0,0.0,90,0.00,,,-99.99,pyweather 0.1,2013-06-26 10:04:00,
2013-06-26 03:12:00,58.5,55.5,0.00,North,0,0.0,0.0,90,0.00,,,-99.99,pyweather 0.1,2013-06-26 10:12:00,
2013-06-26 03:20:00,58.5,55.5,0.00,North,0,0.0,0.0,90,0.00,,,-99.99,pyweather 0.1,2013-06-26 10:20:00,
2013-06-26 03:28:00,58.5,55.5,0.00,North,0,0.0,0.0,90,0.00,,,-99.99,pyweather 0.1,2013-06-26 10:28:00,
2013-06-26 03:36:00,58.5,55.5,0.00,North,0,0.0,0.0,90,0.00,,,-99.99,pyweather 0.1,2013-06-26 10:36:00,
2013-06-26 03:44:00,58.5,55.8,0.00,North,0,0.0,0.0,91,0.00,,,-99.99,pyweather 0.1,2013-06-26 10:44:00,
2013-06-26 03:52:00,58.5,55.8,0.00,North,0,0.0,0.0,91,0.00,,,-99.99,pyweather 0.1,2013-06-26 10:52:00,
2013-06-26 04:00:00,58.6,56.0,0.00,North,0,0.0,0.0,91,0.00,,,-99.99,pyweather 0.1,2013-06-26 11:00:00,
2013-06-26 04:08:00,58.6,56.0,0.00,North,0,0.0,0.0,91,0.00,,,-99.99,pyweather 0.1,2013-06-26 11:08:00,
2013-06-26 04:16:00,58.6,56.0,0.00,North,0,0.0,0.0,91,0.00,,,-99.99,pyweather 0.1,2013-06-26 11:16:00,
2013-06-26 04:24:00,58.6,56.0,0.00,North,0,0.0,0.0,91,0.00,,,-99.99,pyweather 0.1,2013-06-26 11:24:00,
2013-06-26 04:32:00,58.5,55.8,0.00,North,0,0.0,0.0,91,0.00,,,-99.99,pyweather 0.1,2013-06-26 11:32:00,
2013-06-26 04:40:00,58.5,55.8,0.00,North,0,0.0,0.0,91,0.00,,,-99.99,pyweather 0.1,2013-06-26 11:40:00,
2013-06-26 04:48:00,58.5,56.2,0.00,North,0,0.0,0.0,92,0.00,,,-99.99,pyweather 0.1,2013-06-26 11:48:00,
2013-06-26 04:56:00,58.5,56.2,0.00,North,0,0.0,0.0,92,0.00,,,-99.99,pyweather 0.1,2013-06-26 11:56:00,
2013-06-26 05:04:00,58.6,56.3,0.00,North,0,0.0,0.0,92,0.00,,,-99.99,pyweather 0.1,2013-06-26 12:04:00,
2013-06-26 05:12:00,58.8,56.5,0.00,North,0,0.0,0.0,92,0.00,,,-99.99,pyweather 0.1,2013-06-26 12:12:00,
2013-06-26 05:20:00,58.6,56.3,0.00,North,0,0.0,0.0,92,0.00,,,-99.99,pyweather 0.1,2013-06-26 12:20:00,
2013-06-26 05:28:00,58.8,56.5,0.00,North,0,0.0,0.0,92,0.00,,,-99.99,pyweather 0.1,2013-06-26 12:28:00,
2013-06-26 05:37:00,58.8,56.5,0.00,North,0,0.0,0.0,92,0.00,,,-99.99,pyweather 0.1,2013-06-26 12:37:00,
2013-06-26 05:45:00,58.8,56.5,0.00,North,0,0.0,0.0,92,0.00,,,-99.99,pyweather 0.1,2013-06-26 12:45:00,
2013-06-26 05:53:00,58.8,56.8,0.00,North,0,0.0,0.0,93,0.00,,,-99.99,pyweather 0.1,2013-06-26 12:53:00,
2013-06-26 06:01:00,58.8,56.5,0.00,North,0,0.0,0.0,92,0.00,,,-99.99,pyweather 0.1,2013-06-26 13:01:00,
2013-06-26 06:09:00,58.8,56.8,0.00,North,0,0.0,0.0,93,0.04,,,-99.99,pyweather 0.1,2013-06-26 13:09:00,
2013-06-26 06:17:00,59.0,56.7,0.00,North,0,0.0,0.0,92,0.04,,,-99.99,pyweather 0.1,2013-06-26 13:17:00,
2013-06-26 06:25:00,59.0,56.7,0.00,North,0,0.0,0.0,92,0.04,,,-99.99,pyweather 0.1,2013-06-26 13:25:00,
2013-06-26 06:33:00,59.0,57.0,0.00,North,0,0.0,0.0,93,0.04,,,-99.99,pyweather 0.1,2013-06-26 13:33:00,
2013-06-26 06:41:00,59.2,57.2,0.00,North,0,0.0,0.0,93,0.04,,,-99.99,pyweather 0.1,2013-06-26 13:41:00,
2013-06-26 06:49:00,59.2,57.2,0.00,North,0,0.0,0.0,93,0.04,,,-99.99,pyweather 0.1,2013-06-26 13:49:00,
2013-06-26 06:57:00,59.4,57.3,0.00,North,0,0.0,0.0,93,0.04,,,-99.99,pyweather 0.1,2013-06-26 13:57:00,
2013-06-26 07:05:00,59.4,57.3,0.00,North,0,0.0,0.0,93,0.00,,,-99.99,pyweather 0.1,2013-06-26 14:05:00,
2013-06-26 07:13:00,59.5,57.5,0.00,North,0,0.0,0.0,93,0.00,,,-99.99,pyweather 0.1,2013-06-26 14:13:00,
2013-06-26 07:21:00,59.7,57.7,0.00,North,0,0.0,0.0,93,0.00,,,-99.99,pyweather 0.1,2013-06-26 14:21:00,
2013-06-26 07:29:00,59.7,57.7,0.00,North,0,0.0,0.0,93,0.00,,,-99.99,pyweather 0.1,2013-06-26 14:29:00,
2013-06-26 07:37:00,59.7,57.7,0.00,North,0,0.0,0.0,93,0.00,,,-99.99,pyweather 0.1,2013-06-26 14:37:00,
2013-06-26 07:45:00,59.9,57.9,0.00,North,0,0.0,0.0,93,0.00,,,-99.99,pyweather 0.1,2013-06-26 14:45:00,
2013-06-26 07:53:00,60.3,58.2,0.00,North,0,0.0,0.0,93,0.00,,,-99.99,pyweather 0.1,2013-06-26 14:53:00,
2013-06-26 08:01:00,60.4,58.4,0.00,North,0,0.0,0.0,93,0.00,,,-99.99,pyweather 0.1,2013-06-26 15:01:00,
2013-06-26 08:09:00,60.4,58.1,0.00,North,0,0.0,0.0,92,0.00,,,-99.99,pyweather 0.1,2013-06-26 15:09:00,
2013-06-26 08:17:00,60.6,58.3,0.00,North,0,0.0,0.0,92,0.00,,,-99.99,pyweather 0.1,2013-06-26 15:17:00,
2013-06-26 08:25:00,60.6,58.3,0.00,North,0,0.0,0.0,92,0.00,,,-99.99,pyweather 0.1,2013-06-26 15:25:00,
2013-06-26 08:34:00,60.6,58.0,0.00,North,0,0.0,0.0,91,0.00,,,-99.99,pyweather 0.1,2013-06-26 15:34:00,
2013-06-26 08:42:00,61.2,58.5,0.00,North,0,0.0,0.0,91,0.00,,,-99.99,pyweather 0.1,2013-06-26 15:42:00,
2013-06-26 08:50:00,61.7,59.0,0.00,North,0,0.0,0.0,91,0.00,,,-99.99,pyweather 0.1,2013-06-26 15:50:00,
2013-06-26 08:58:00,62.1,59.4,0.00,North,0,0.0,0.0,91,0.00,,,-99.99,pyweather 0.1,2013-06-26 15:58:00,
2013-06-26 09:06:00,61.9,58.9,0.00,North,0,0.0,0.0,90,0.00,,,-99.99,pyweather 0.1,2013-06-26 16:06:00,
2013-06-26 09:14:00,61.9,58.0,0.00,North,0,0.0,0.0,87,0.00,,,-99.99,pyweather 0.1,2013-06-26 16:14:00,
2013-06-26 09:22:00,61.9,57.3,0.00,North,0,0.0,0.0,85,0.00,,,-99.99,pyweather 0.1,2013-06-26 16:22:00,
2013-06-26 09:30:00,62.1,57.8,0.00,North,0,0.0,0.0,86,0.00,,,-99.99,pyweather 0.1,2013-06-26 16:30:00,
2013-06-26 09:38:00,62.6,58.4,0.00,North,0,0.0,0.0,86,0.00,,,-99.99,pyweather 0.1,2013-06-26 16:38:00,
2013-06-26 09:46:00,62.8,58.2,0.00,North,0,0.0,0.0,85,0.00,,,-99.99,pyweather 0.1,2013-06-26 16:46:00,
2013-06-26 09:54:00,62.8,58.2,0.00,North,0,0.0,0.0,85,0.00,,,-99.99,pyweather 0.1,2013-06-26 16:54:00,
2013-06-26 10:02:00,63.0,58.1,0.00,North,0,0.0,0.0,84,0.00,,,-99.99,pyweather 0.1,2013-06-26 17:02:00,
2013-06-26 10:10:00,63.1,58.2,0.00,North,0,0.0,0.0,84,0.00,,,-99.99,pyweather 0.1,2013-06-26 17:10:00,
2013-06-26 10:18:00,63.3,58.1,0.00,North,0,0.0,0.0,83,0.00,,,-99.99,pyweather 0.1,2013-06-26 17:18:00,
2013-06-26 10:26:00,63.5,58.2,0.00,North,0,0.0,0.0,83,0.00,,,-99.99,pyweather 0.1,2013-06-26 17:26:00,
2013-06-26 10:34:00,63.9,58.6,0.00,North,0,0.0,0.0,83,0.00,,,-99.99,pyweather 0.1,2013-06-26 17:34:00,
2013-06-26 10:42:00,64.4,58.8,0.00,North,0,0.0,0.0,82,0.00,,,-99.99,pyweather 0.1,2013-06-26 17:42:00,
2013-06-26 10:50:00,64.6,58.3,0.00,North,0,0.0,0.0,80,0.00,,,-99.99,pyweather 0.1,2013-06-26 17:50:00,
2013-06-26 10:58:00,64.9,58.3,0.00,North,0,0.0,0.0,79,0.00,,,-99.99,pyweather 0.1,2013-06-26 17:58:00,
2013-06-26 11:06:00,66.0,59.3,0.00,North,0,0.0,0.0,79,0.00,,,-99.99,pyweather 0.1,2013-06-26 18:06:00,
2013-06-26 11:14:00,66.9,59.1,0.00,North,0,0.0,0.0,76,0.00,,,-99.99,pyweather 0.1,2013-06-26 18:14:00,
2013-06-26 11:22:00,68.5,59.9,0.00,North,0,0.0,0.0,74,0.00,,,-99.99,pyweather 0.1,2013-06-26 18:22:00,
2013-06-26 11:31:00,69.4,55.4,0.00,North,0,0.0,0.0,61,0.00,,,-99.99,pyweather 0.1,2013-06-26 18:31:00,
2013-06-26 11:39:00,71.8,57.6,0.00,North,0,0.0,0.0,61,0.00,,,-99.99,pyweather 0.1,2013-06-26 18:39:00,
2013-06-26 11:47:00,71.8,53.2,0.00,North,0,0.0,0.0,52,0.00,,,-99.99,pyweather 0.1,2013-06-26 18:47:00,
2013-06-26 11:55:00,71.4,53.9,0.00,North,0,0.0,0.0,54,0.00,,,-99.99,pyweather 0.1,2013-06-26 18:55:00,
2013-06-26 12:03:00,71.1,53.6,0.00,North,0,0.0,0.0,54,0.00,,,-99.99,pyweather 0.1,2013-06-26 19:03:00,
2013-06-26 12:11:00,70.5,53.6,0.00,North,0,0.0,0.0,55,0.00,,,-99.99,pyweather 0.1,2013-06-26 19:11:00,
2013-06-26 12:19:00,72.0,54.9,0.00,North,0,0.0,0.0,55,0.00,,,-99.99,pyweather 0.1,2013-06-26 19:19:00,
2013-06-26 12:27:00,71.6,52.5,0.00,North,0,0.0,0.0,51,0.00,,,-99.99,pyweather 0.1,2013-06-26 19:27:00,
2013-06-26 12:35:00,70.7,50.6,0.00,North,0,0.0,0.0,49,0.00,,,-99.99,pyweather 0.1,2013-06-26 19:35:00,
2013-06-26 12:43:00,72.0,52.9,0.00,North,0,0.0,0.0,51,0.00,,,-99.99,pyweather 0.1,2013-06-26 19:43:00,
2013-06-26 12:51:00,72.3,51.5,0.00,North,0,0.0,0.0,48,0.00,,,-99.99,pyweather 0.1,2013-06-26 19:51:00,
2013-06-26 12:59:00,71.2,50.6,0.00,North,0,0.0,0.0,48,0.00,,,-99.99,pyweather 0.1,2013-06-26 19:59:00,
2013-06-26 13:07:00,72.0,52.3,0.00,North,0,0.0,0.0,50,0.00,,,-99.99,pyweather 0.1,2013-06-26 20:07:00,
2013-06-26 13:15:00,73.0,51.6,0.00,North,0,0.0,0.0,47,0.00,,,-99.99,pyweather 0.1,2013-06-26 20:15:00,
2013-06-26 13:23:00,73.9,51.9,0.00,North,0,0.0,0.0,46,0.00,,,-99.99,pyweather 0.1,2013-06-26 20:23:00,
2013-06-26 13:31:00,74.1,52.0,0.00,North,0,0.0,0.0,46,0.00,,,-99.99,pyweather 0.1,2013-06-26 20:31:00,
2013-06-26 13:39:00,73.9,50.7,0.00,North,0,0.0,0.0,44,0.00,,,-99.99,pyweather 0.1,2013-06-26 20:39:00,
2013-06-26 13:47:00,73.4,50.8,0.00,North,0,0.0,0.0,45,0.00,,,-99.99,pyweather 0.1,2013-06-26 20:47:00,
2013-06-26 13:55:00,73.8,51.1,0.00,North,0,0.0,0.0,45,0.00,,,-99.99,pyweather 0.1,2013-06-26 20:55:00,
2013-06-26 14:03:00,73.0,50.5,0.00,North,0,0.0,0.0,45,0.00,,,-99.99,pyweather 0.1,2013-06-26 21:03:00,
2013-06-26 14:11:00,72.7,51.3,0.00,North,0,0.0,0.0,47,0.00,,,-99.99,pyweather 0.1,2013-06-26 21:11:00,
2013-06-26 14:19:00,73.2,51.8,0.00,North,0,0.0,0.0,47,0.00,,,-99.99,pyweather 0.1,2013-06-26 21:19:00,
2013-06-26 14:28:00,74.3,52.8,0.00,North,0,0.0,0.0,47,0.00,,,-99.99,pyweather 0.1,2013-06-26 21:28:00,
2013-06-26 14:36:00,75.0,52.9,0.00,North,0,0.0,0.0,46,0.00,,,-99.99,pyweather 0.1,2013-06-26 21:36:00,
2013-06-26 14:44:00,74.3,50.4,0.00,North,0,0.0,0.0,43,0.00,,,-99.99,pyweather 0.1,2013-06-26 21:44:00,
2013-06-26 14:52:00,74.7,50.7,0.00,North,0,0.0,0.0,43,0.00,,,-99.99,pyweather 0.1,2013-06-26 21:52:00,
2013-06-26 15:00:00,74.3,51.0,0.00,North,0,0.0,0.0,44,0.00,,,-99.99,pyweather 0.1,2013-06-26 22:00:00,
2013-06-26 15:08:00,74.8,51.5,0.00,North,0,0.0,0.0,44,0.00,,,-99.99,pyweather 0.1,2013-06-26 22:08:00,
2013-06-26 15:16:00,74.7,50.1,0.00,North,0,0.0,0.0,42,0.00,,,-99.99,pyweather 0.1,2013-06-26 22:16:00,
2013-06-26 15:24:00,74.7,50.1,0.00,North,0,0.0,0.0,42,0.00,,,-99.99,pyweather 0.1,2013-06-26 22:24:00,
2013-06-26 15:32:00,74.1,48.9,0.00,North,0,0.0,0.0,41,0.00,,,-99.99,pyweather 0.1,2013-06-26 22:32:00,
2013-06-26 15:40:00,73.6,49.7,0.00,North,0,0.0,0.0,43,0.00,,,-99.99,pyweather 0.1,2013-06-26 22:40:00,
2013-06-26 15:48:00,73.2,49.4,0.00,North,0,0.0,0.0,43,0.00,,,-99.99,pyweather 0.1,2013-06-26 22:48:00,
2013-06-26 15:56:00,72.5,48.8,0.00,North,0,0.0,0.0,43,0.00,,,-99.99,pyweather 0.1,2013-06-26 22:56:00,
2013-06-26 16:04:00,71.8,49.3,0.00,North,0,0.0,0.0,45,0.00,,,-99.99,pyweather 0.1,2013-06-26 23:04:00,
2013-06-26 16:12:00,71.4,50.7,0.00,North,0,0.0,0.0,48,0.00,,,-99.99,pyweather 0.1,2013-06-26 23:12:00,
2013-06-26 16:20:00,71.8,51.6,0.00,North,0,0.0,0.0,49,0.00,,,-99.99,pyweather 0.1,2013-06-26 23:20:00,
2013-06-26 16:28:00,73.2,52.9,0.00,North,0,0.0,0.0,49,0.00,,,-99.99,pyweather 0.1,2013-06-26 23:28:00,
2013-06-26 16:36:00,73.2,50.6,0.00,North,0,0.0,0.0,45,0.00,,,-99.99,pyweather 0.1,2013-06-26 23:36:00,
2013-06-26 16:44:00,73.4,50.8,0.00,North,0,0.0,0.0,45,0.00,,,-99.99,pyweather 0.1,2013-06-26 23:44:00,
2013-06-26 16:52:00,72.7,49.5,0.00,North,0,0.0,0.0,44,0.00,,,-99.99,pyweather 0.1,2013-06-26 23:52:00,
2013-06-26 17:00:00,72.9,50.3,0.00,North,0,0.0,0.0,45,0.00,,,-99.99,pyweather 0.1,2013-06-27 00:00:00,
2013-06-26 17:08:00,72.9,49.1,0.00,North,0,0.0,0.0,43,0.00,,,-99.99,pyweather 0.1,2013-06-27 00:08:00,
2013-06-26 17:16:00,72.0,49.5,0.00,North,0,0.0,0.0,45,0.00,,,-99.99,pyweather 0.1,2013-06-27 00:16:00,
2013-06-26 17:25:00,71.8,48.1,0.00,North,0,0.0,0.0,43,0.00,,,-99.99,pyweather 0.1,2013-06-27 00:25:00,